Time;durP1;ratioP1;P1;durP2;ratioP2;P2;SDS_P1;SDS_P2;PMS_P1;PMS_P2;Temp;Humidity;BMP_temperature;BMP_pressure;BME280_temperature;BME280_humidity;BME280_pressure;Samples;Min_cycle;Max_cycle;Signal;HPM_P1;HPM_P2
2023/10/01 00:00:43;;;;;;;12.13;2.55;;;11.80;99.90;;;;;;4970746;28;20180;-81
2023/10/01 00:03:11;;;;;;;14.32;3.63;;;11.80;99.90;;;;;;4953022;28;20242;-80
2023/10/01 00:05:40;;;;;;;14.68;2.33;;;11.80;99.90;;;;;;4970548;28;20291;-80
2023/10/01 00:08:08;;;;;;;11.85;2.65;;;11.80;99.90;;;;;;4970885;28;20200;-81
2023/10/01 00:10:36;;;;;;;15.32;2.72;;;11.80;99.90;;;;;;4970627;28;20310;-81
2023/10/01 00:13:04;;;;;;;12.63;2.97;;;11.80;99.90;;;;;;4968090;28;20602;-81
2023/10/01 00:15:32;;;;;;;10.48;2.42;;;11.80;99.90;;;;;;4970700;28;20188;-81
2023/10/01 00:18:00;;;;;;;12.38;3.53;;;11.80;99.90;;;;;;4970433;28;20203;-81
2023/10/01 00:20:28;;;;;;;15.25;3.50;;;11.90;99.90;;;;;;4968936;28;20200;-80
2023/10/01 00:22:59;;;;;;;11.10;2.92;;;11.90;99.90;;;;;;4970527;28;20279;-81
2023/10/01 00:25:27;;;;;;;11.55;2.50;;;11.80;99.90;;;;;;4970269;28;20291;-80
2023/10/01 00:27:59;;;;;;;19.42;3.83;;;11.80;99.90;;;;;;4949733;29;20196;-81
2023/10/01 00:30:31;;;;;;;10.15;3.13;;;11.80;99.90;;;;;;4938791;28;20240;-80
2023/10/01 00:33:07;;;;;;;18.05;3.30;;;11.80;99.90;;;;;;4952903;28;20281;-81
2023/10/01 00:35:40;;;;;;;11.80;3.03;;;11.80;99.90;;;;;;4952918;28;20199;-82
2023/10/01 00:38:09;;;;;;;12.45;3.00;;;11.80;99.90;;;;;;4952603;28;20702;-80
2023/10/01 00:40:37;;;;;;;16.75;3.03;;;11.70;99.90;;;;;;4948891;28;20638;-81
2023/10/01 00:43:05;;;;;;;13.90;3.30;;;11.80;99.90;;;;;;4953110;28;20204;-80
2023/10/01 00:45:33;;;;;;;12.80;3.17;;;11.80;99.90;;;;;;4970247;28;20192;-80
2023/10/01 00:48:14;;;;;;;12.77;3.38;;;11.80;99.90;;;;;;4953055;28;20200;-80
2023/10/01 00:50:42;;;;;;;12.02;3.05;;;11.80;99.90;;;;;;4952621;28;20661;-80
2023/10/01 00:53:10;;;;;;;16.27;3.63;;;11.80;99.90;;;;;;4970170;28;20195;-82
2023/10/01 00:55:39;;;;;;;13.40;3.22;;;11.80;99.90;;;;;;4950185;29;20216;-81
2023/10/01 00:58:10;;;;;;;11.88;3.05;;;11.80;99.90;;;;;;4951081;28;20247;-81
2023/10/01 01:00:38;;;;;;;12.32;3.30;;;11.70;99.90;;;;;;4952741;28;20262;-81
2023/10/01 01:03:07;;;;;;;10.77;3.13;;;11.70;99.90;;;;;;4970328;28;20195;-80
2023/10/01 01:05:57;;;;;;;16.55;3.75;;;11.70;99.90;;;;;;4969958;28;20200;-81
2023/10/01 01:08:46;;;;;;;14.07;3.63;;;11.60;99.90;;;;;;4969841;28;20200;-81
2023/10/01 01:11:15;;;;;;;16.25;3.47;;;11.60;99.90;;;;;;4952389;28;20218;-81
2023/10/01 01:13:43;;;;;;;14.90;3.00;;;11.60;99.90;;;;;;4952501;28;20189;-80
2023/10/01 01:16:13;;;;;;;19.70;4.05;;;11.60;99.90;;;;;;4949486;28;20283;-81
2023/10/01 01:18:46;;;;;;;15.38;3.83;;;11.60;99.90;;;;;;4970463;28;20302;-81
2023/10/01 01:21:14;;;;;;;15.13;4.05;;;11.50;99.90;;;;;;4969961;28;20212;-82
2023/10/01 01:23:42;;;;;;;12.85;4.05;;;11.50;99.90;;;;;;4952371;28;20204;-81
2023/10/01 01:26:10;;;;;;;11.23;3.88;;;11.50;99.90;;;;;;4968104;28;20200;-81
2023/10/01 01:28:37;;;;;;;15.10;4.20;;;11.60;99.90;;;;;;4969601;28;20219;-81
2023/10/01 01:31:06;;;;;;;15.23;4.32;;;11.60;99.90;;;;;;4950312;28;20224;-81
2023/10/01 01:33:40;;;;;;;20.40;4.07;;;11.60;99.90;;;;;;4958842;28;20192;-81
2023/10/01 01:36:10;;;;;;;13.20;3.85;;;11.60;99.90;;;;;;4951304;28;20286;-81
2023/10/01 01:39:10;;;;;;;13.52;3.47;;;11.50;99.90;;;;;;4957822;28;20644;-81
2023/10/01 01:41:42;;;;;;;12.30;3.28;;;11.50;99.90;;;;;;4962589;28;20200;-81
2023/10/01 01:44:15;;;;;;;16.70;3.30;;;11.50;99.90;;;;;;4973925;28;20195;-81
2023/10/01 01:46:48;;;;;;;12.75;3.28;;;11.50;99.90;;;;;;4955966;28;20191;-81
2023/10/01 01:49:20;;;;;;;14.98;3.00;;;11.50;99.90;;;;;;4955487;28;20203;-81
2023/10/01 01:51:58;;;;;;;16.98;3.78;;;11.50;99.90;;;;;;4973117;28;20196;-81
2023/10/01 01:54:34;;;;;;;16.25;3.22;;;11.50;99.90;;;;;;4948579;28;20196;-80
2023/10/01 01:57:09;;;;;;;17.65;2.88;;;11.50;99.90;;;;;;4971126;28;20207;-80
2023/10/01 01:59:38;;;;;;;15.48;3.47;;;11.50;99.90;;;;;;4955427;28;20226;-80
2023/10/01 02:02:09;;;;;;;16.88;3.15;;;11.50;99.90;;;;;;4955856;28;20192;-81
2023/10/01 02:04:58;;;;;;;10.10;3.08;;;11.50;99.90;;;;;;4953294;28;20200;-81
2023/10/01 02:07:33;;;;;;;12.63;2.72;;;11.50;99.90;;;;;;4950993;28;20220;-81
2023/10/01 02:10:04;;;;;;;9.60;2.85;;;11.50;99.90;;;;;;4971243;28;20640;-81
2023/10/01 02:12:36;;;;;;;14.80;3.50;;;11.50;99.90;;;;;;4972725;28;20843;-80
2023/10/01 02:15:07;;;;;;;13.43;2.92;;;11.50;99.90;;;;;;4954523;28;20210;-81
2023/10/01 02:17:35;;;;;;;12.20;2.95;;;11.50;99.90;;;;;;4972475;28;20671;-81
2023/10/01 02:20:22;;;;;;;16.40;3.58;;;11.50;99.90;;;;;;4972590;28;20196;-81
2023/10/01 02:22:50;;;;;;;14.32;3.13;;;11.50;99.90;;;;;;4955399;28;20726;-81
2023/10/01 02:25:18;;;;;;;13.45;2.78;;;11.50;99.90;;;;;;4972403;28;20188;-80
2023/10/01 02:28:06;;;;;;;8.55;2.72;;;11.50;99.90;;;;;;4954823;28;20187;-80
2023/10/01 02:30:33;;;;;;;7.43;2.45;;;11.50;99.90;;;;;;4947079;28;20227;-81
2023/10/01 02:33:17;;;;;;;15.52;3.38;;;11.50;99.90;;;;;;4972282;28;20215;-80
2023/10/01 02:35:49;;;;;;;8.80;2.75;;;11.50;99.90;;;;;;4972190;28;20674;-81
2023/10/01 02:41:08;;;;;;;13.85;2.85;;;11.40;99.90;;;;;;4955044;28;20218;-81
2023/10/01 02:43:41;;;;;;;13.88;2.63;;;11.40;99.90;;;;;;4955604;28;20290;-81
2023/10/01 02:46:12;;;;;;;11.30;2.50;;;11.40;99.90;;;;;;4972331;28;20278;-81
2023/10/01 02:48:41;;;;;;;15.32;3.53;;;11.40;99.90;;;;;;4972499;28;20235;-81
2023/10/01 02:51:15;;;;;;;13.20;2.78;;;11.40;99.90;;;;;;4972185;28;20299;-81
2023/10/01 02:54:05;;;;;;;13.48;3.25;;;11.40;99.90;;;;;;4971959;28;20302;-81
2023/10/01 02:56:37;;;;;;;19.33;2.85;;;11.40;99.90;;;;;;4954301;28;20199;-80
2023/10/01 02:59:12;;;;;;;11.65;2.60;;;11.40;99.90;;;;;;4954774;28;20755;-80
2023/10/01 03:01:46;;;;;;;14.50;3.13;;;11.40;99.90;;;;;;4926054;28;20195;-80
2023/10/01 03:04:17;;;;;;;11.98;2.72;;;11.40;99.90;;;;;;4954474;28;20188;-81
2023/10/01 03:06:56;;;;;;;11.23;2.90;;;11.40;99.90;;;;;;4971643;28;20258;-80
2023/10/01 03:09:31;;;;;;;15.52;2.88;;;11.30;99.90;;;;;;4954847;28;20566;-81
2023/10/01 03:15:00;;;;;;;9.68;2.60;;;11.40;99.90;;;;;;4971584;28;20184;-81
2023/10/01 03:17:38;;;;;;;13.23;2.42;;;11.40;99.90;;;;;;4953919;28;20214;-81
2023/10/01 03:20:58;;;;;;;13.38;2.83;;;11.40;99.90;;;;;;4971804;28;20242;-81
2023/10/01 03:23:05;;;;;;;12.27;2.45;;;11.30;99.90;;;;;;4971825;28;20214;-81
2023/10/01 03:25:55;;;;;;;9.07;2.55;;;11.30;99.90;;;;;;4971697;28;20191;-81
2023/10/01 03:28:27;;;;;;;14.82;3.08;;;11.30;99.90;;;;;;4952942;28;20200;-81
2023/10/01 03:31:16;;;;;;;11.88;2.50;;;11.40;99.90;;;;;;4970983;28;20278;-81
2023/10/01 03:33:45;;;;;;;11.15;2.55;;;11.30;99.90;;;;;;4960219;28;20191;-80
2023/10/01 03:36:16;;;;;;;16.10;3.10;;;11.30;99.90;;;;;;4970992;28;20263;-80
2023/10/01 03:38:44;;;;;;;11.63;3.03;;;11.40;99.90;;;;;;4953614;28;20910;-81
2023/10/01 03:41:21;;;;;;;18.58;3.47;;;11.40;99.90;;;;;;4971005;28;20188;-80
2023/10/01 03:43:50;;;;;;;14.43;2.28;;;11.30;99.90;;;;;;4963172;28;20682;-80
2023/10/01 03:49:55;;;;;;;16.17;3.00;;;11.30;99.90;;;;;;4970958;28;20733;-80
2023/10/01 03:51:52;;;;;;;12.27;2.95;;;11.20;99.90;;;;;;4940087;28;20230;-81
2023/10/01 03:54:26;;;;;;;9.73;2.30;;;11.30;99.90;;;;;;4950546;28;20209;-80
2023/10/01 03:56:57;;;;;;;11.85;2.08;;;11.40;99.90;;;;;;4970202;28;20196;-81
2023/10/01 03:59:27;;;;;;;10.95;2.42;;;11.30;99.90;;;;;;4971124;28;20188;-80
2023/10/01 04:01:58;;;;;;;8.88;2.40;;;11.30;99.90;;;;;;4970542;28;20271;-80
2023/10/01 04:04:28;;;;;;;15.98;2.63;;;11.30;99.90;;;;;;4968903;28;20184;-81
2023/10/01 04:06:56;;;;;;;22.58;2.70;;;11.30;99.90;;;;;;4970014;28;20262;-82
2023/10/01 04:09:26;;;;;;;8.88;2.72;;;11.40;99.90;;;;;;4970790;28;20192;-81
2023/10/01 04:12:18;;;;;;;15.00;2.25;;;11.40;99.90;;;;;;4970520;28;20630;-81
2023/10/01 04:14:48;;;;;;;10.07;1.90;;;11.40;99.90;;;;;;4968374;28;20187;-81
2023/10/01 04:17:19;;;;;;;13.63;2.90;;;11.40;99.90;;;;;;4970380;28;20271;-80
2023/10/01 04:19:49;;;;;;;12.18;2.65;;;11.40;99.90;;;;;;4966507;28;20188;-81
2023/10/01 04:22:21;;;;;;;11.52;2.53;;;11.40;99.90;;;;;;4970309;28;20198;-81
2023/10/01 04:25:10;;;;;;;14.80;2.72;;;11.40;99.90;;;;;;4970526;28;21052;-81
2023/10/01 04:27:41;;;;;;;17.08;2.80;;;11.40;99.90;;;;;;4935276;28;20200;-81
2023/10/01 04:30:11;;;;;;;13.13;2.95;;;11.40;99.90;;;;;;4970225;28;20199;-81
2023/10/01 04:32:39;;;;;;;9.85;2.45;;;11.40;99.90;;;;;;4966421;28;20302;-80
2023/10/01 04:35:17;;;;;;;8.95;1.88;;;11.40;99.90;;;;;;4950450;28;20209;-81
2023/10/01 04:37:51;;;;;;;18.00;3.42;;;11.40;99.90;;;;;;4952214;28;20220;-81
2023/10/01 04:40:39;;;;;;;12.35;2.17;;;11.40;99.90;;;;;;4968636;28;20228;-81
2023/10/01 04:43:11;;;;;;;14.75;2.42;;;11.40;99.90;;;;;;4968527;28;20270;-81
2023/10/01 04:45:40;;;;;;;14.38;2.53;;;11.50;99.90;;;;;;4969696;28;20197;-81
2023/10/01 04:48:24;;;;;;;14.25;2.85;;;11.40;99.90;;;;;;4950713;28;20251;-82
2023/10/01 04:50:53;;;;;;;17.92;2.53;;;11.40;99.90;;;;;;4961991;28;20195;-81
2023/10/01 04:53:22;;;;;;;17.23;2.42;;;11.40;99.90;;;;;;4951570;28;20204;-81
2023/10/01 04:56:00;;;;;;;12.43;2.63;;;11.40;99.90;;;;;;4952119;28;20194;-80
2023/10/01 04:58:38;;;;;;;9.07;1.92;;;11.40;99.90;;;;;;4969183;28;20218;-80
2023/10/01 05:01:12;;;;;;;10.95;2.38;;;11.40;99.90;;;;;;4952099;28;20191;-82
2023/10/01 05:03:44;;;;;;;12.68;2.00;;;11.40;99.90;;;;;;4952386;28;20196;-80
2023/10/01 05:06:14;;;;;;;13.32;2.38;;;11.40;99.90;;;;;;4969094;28;20198;-80
2023/10/01 05:08:42;;;;;;;12.55;2.40;;;11.40;99.90;;;;;;4969097;28;20710;-81
2023/10/01 05:11:12;;;;;;;11.90;2.33;;;11.40;99.90;;;;;;4950872;28;20299;-80
2023/10/01 05:13:47;;;;;;;10.52;3.05;;;11.40;99.90;;;;;;4969503;28;20188;-81
2023/10/01 05:16:18;;;;;;;10.45;2.25;;;11.40;99.90;;;;;;4969513;28;20191;-81
2023/10/01 05:18:46;;;;;;;10.40;1.90;;;11.50;99.90;;;;;;4954957;28;20218;-81
2023/10/01 05:21:18;;;;;;;12.52;2.20;;;11.50;99.90;;;;;;4971315;28;20199;-80
2023/10/01 05:23:47;;;;;;;14.32;2.30;;;11.50;99.90;;;;;;4969686;28;20192;-82
2023/10/01 05:26:21;;;;;;;11.85;2.60;;;11.50;99.90;;;;;;4972969;28;20194;-81
2023/10/01 05:28:49;;;;;;;16.40;2.55;;;11.50;99.90;;;;;;4972541;28;20670;-80
2023/10/01 05:31:24;;;;;;;15.82;2.95;;;11.50;99.90;;;;;;4968516;28;20314;-81
2023/10/01 05:33:53;;;;;;;18.00;3.15;;;11.40;99.90;;;;;;4972635;28;20184;-81
2023/10/01 05:36:20;;;;;;;11.00;2.22;;;11.40;99.90;;;;;;4972778;28;20212;-80
2023/10/01 05:38:51;;;;;;;13.68;2.53;;;11.40;99.90;;;;;;4972510;28;20212;-81
2023/10/01 05:41:29;;;;;;;18.77;3.05;;;11.40;99.90;;;;;;4964892;28;20193;-81
2023/10/01 05:43:57;;;;;;;12.32;2.30;;;11.40;99.90;;;;;;4963669;28;20599;-81
2023/10/01 05:46:27;;;;;;;11.38;2.38;;;11.40;99.90;;;;;;4953693;28;20188;-80
2023/10/01 05:48:55;;;;;;;16.25;2.60;;;11.40;99.90;;;;;;4972279;28;20339;-80
2023/10/01 05:51:30;;;;;;;10.65;2.33;;;11.40;99.90;;;;;;4972482;28;20979;-81
2023/10/01 05:53:59;;;;;;;12.82;2.58;;;11.40;99.90;;;;;;4972557;28;20184;-81
2023/10/01 05:56:36;;;;;;;16.00;2.58;;;11.50;99.90;;;;;;4972704;28;20280;-81
2023/10/01 05:59:06;;;;;;;11.88;2.47;;;11.40;99.90;;;;;;4972092;28;20210;-80
2023/10/01 06:01:34;;;;;;;13.68;2.83;;;11.40;99.90;;;;;;4970657;28;20243;-80
2023/10/01 06:04:02;;;;;;;15.63;2.65;;;11.50;99.90;;;;;;4955294;28;20200;-81
2023/10/01 06:06:36;;;;;;;13.43;2.67;;;11.50;99.90;;;;;;4961239;28;20279;-81
2023/10/01 06:09:09;;;;;;;13.82;2.70;;;11.50;99.90;;;;;;4954241;28;20860;-81
2023/10/01 06:11:41;;;;;;;12.95;3.00;;;11.50;99.90;;;;;;4972450;28;20192;-82
2023/10/01 06:14:36;;;;;;;17.23;2.63;;;11.50;99.90;;;;;;4954721;28;20292;-81
2023/10/01 06:17:01;;;;;;;11.52;2.22;;;11.50;99.90;;;;;;4971981;28;20293;-80
2023/10/01 06:19:32;;;;;;;17.17;2.70;;;11.50;99.90;;;;;;4972023;28;20235;-81
2023/10/01 06:22:43;;;;;;;9.43;2.03;;;11.50;99.90;;;;;;4971785;28;20192;-81
2023/10/01 06:24:52;;;;;;;16.73;3.00;;;11.60;99.90;;;;;;4958687;28;20203;-80
2023/10/01 06:27:19;;;;;;;15.07;2.55;;;11.50;99.90;;;;;;4948752;28;20562;-80
2023/10/01 06:29:50;;;;;;;15.00;2.60;;;11.50;99.90;;;;;;4954372;28;20332;-82
2023/10/01 06:32:22;;;;;;;12.52;2.25;;;11.60;99.90;;;;;;4971545;28;20243;-81
2023/10/01 06:34:53;;;;;;;10.25;2.30;;;11.60;99.90;;;;;;4971346;28;20223;-81
2023/10/01 06:37:21;;;;;;;10.60;2.05;;;11.60;99.90;;;;;;4968216;28;20693;-80
2023/10/01 06:39:48;;;;;;;13.20;2.25;;;11.60;99.90;;;;;;4971454;28;20259;-81
2023/10/01 06:42:18;;;;;;;15.32;2.70;;;11.60;99.90;;;;;;4971597;28;20241;-82
2023/10/01 06:44:53;;;;;;;11.25;1.90;;;11.70;99.90;;;;;;4952580;28;20203;-80
2023/10/01 06:47:23;;;;;;;12.63;2.40;;;11.60;99.90;;;;;;4970475;28;20215;-80
2023/10/01 06:52:41;;;;;;;15.05;2.50;;;11.70;99.90;;;;;;4971735;28;20188;-81
2023/10/01 06:55:25;;;;;;;14.70;2.28;;;11.70;99.90;;;;;;4971263;28;20195;-80
2023/10/01 06:58:00;;;;;;;16.27;2.78;;;11.70;99.90;;;;;;4963462;28;20192;-81
2023/10/01 07:00:33;;;;;;;15.88;2.70;;;11.80;99.90;;;;;;4971374;28;20187;-81
2023/10/01 07:03:21;;;;;;;11.55;2.35;;;11.80;99.90;;;;;;4970232;28;20180;-81
2023/10/01 07:05:55;;;;;;;14.82;2.17;;;11.80;99.90;;;;;;4959069;28;20192;-80
2023/10/01 07:08:37;;;;;;;10.82;1.75;;;11.80;99.90;;;;;;4950960;28;20211;-80
2023/10/01 07:11:11;;;;;;;11.48;2.60;;;11.80;99.90;;;;;;4968258;28;20188;-80
2023/10/01 07:13:40;;;;;;;11.98;2.33;;;11.90;99.90;;;;;;4971164;28;20310;-80
2023/10/01 07:16:08;;;;;;;15.15;2.67;;;11.90;99.90;;;;;;4945432;28;20283;-80
2023/10/01 07:18:38;;;;;;;12.10;2.45;;;11.90;99.90;;;;;;4970910;28;20210;-81
2023/10/01 07:21:11;;;;;;;10.77;2.05;;;12.00;99.90;;;;;;4945393;28;20329;-80
2023/10/01 07:23:42;;;;;;;13.80;2.45;;;12.00;99.90;;;;;;4960593;28;20180;-80
2023/10/01 07:26:12;;;;;;;9.43;1.92;;;12.00;99.90;;;;;;4953444;28;20199;-80
2023/10/01 07:28:41;;;;;;;10.80;1.70;;;11.90;99.90;;;;;;4970621;28;20196;-80
2023/10/01 07:31:09;;;;;;;9.65;2.20;;;12.00;99.90;;;;;;4970141;28;20618;-79
2023/10/01 07:33:37;;;;;;;12.07;2.67;;;12.00;99.90;;;;;;4969107;28;20194;-80
2023/10/01 07:36:10;;;;;;;12.38;1.98;;;12.00;99.90;;;;;;4968985;28;20192;-79
2023/10/01 07:38:48;;;;;;;13.07;2.63;;;12.00;99.90;;;;;;4967419;28;20230;-80
2023/10/01 07:41:17;;;;;;;11.32;2.38;;;12.00;99.90;;;;;;4969435;28;20200;-80
2023/10/01 07:43:45;;;;;;;9.95;2.10;;;12.00;99.90;;;;;;4969699;28;20222;-80
2023/10/01 07:46:18;;;;;;;12.93;2.60;;;12.10;99.90;;;;;;4969612;28;20202;-80
2023/10/01 07:48:51;;;;;;;10.93;2.17;;;12.10;99.90;;;;;;4970353;28;20283;-80
2023/10/01 07:51:31;;;;;;;9.68;1.80;;;12.20;99.90;;;;;;4970346;28;20280;-81
2023/10/01 07:54:02;;;;;;;10.13;2.13;;;12.20;99.90;;;;;;4970467;28;20192;-81
2023/10/01 07:56:32;;;;;;;11.43;1.70;;;12.20;99.90;;;;;;4970305;28;20247;-80
2023/10/01 08:01:59;;;;;;;8.02;1.95;;;12.20;99.90;;;;;;4967989;28;20191;-80
2023/10/01 08:04:50;;;;;;;8.30;1.75;;;12.20;99.90;;;;;;4966611;28;20184;-80
2023/10/01 08:07:22;;;;;;;9.90;1.80;;;12.20;99.90;;;;;;4970168;28;20191;-80
2023/10/01 08:09:54;;;;;;;9.07;1.52;;;12.30;99.90;;;;;;4970170;28;20552;-80
2023/10/01 08:15:29;;;;;;;9.68;1.95;;;12.30;99.90;;;;;;4969739;28;20195;-80
2023/10/01 08:18:19;;;;;;;9.40;1.88;;;12.40;99.90;;;;;;4969637;28;20192;-80
2023/10/01 08:20:57;;;;;;;10.63;2.20;;;12.40;99.90;;;;;;4970217;28;20533;-81
2023/10/01 08:23:33;;;;;;;7.18;1.77;;;12.50;99.90;;;;;;4933915;29;20544;-80
2023/10/01 08:26:49;;;;;;;9.90;1.80;;;12.50;99.90;;;;;;4963823;28;20202;-79
2023/10/01 08:28:57;;;;;;;9.80;1.98;;;12.50;99.90;;;;;;4959947;28;20228;-80
2023/10/01 08:34:23;;;;;;;9.82;1.73;;;12.60;99.90;;;;;;4952222;28;20199;-80
2023/10/01 08:36:57;;;;;;;11.95;1.85;;;12.60;99.90;;;;;;4970107;28;20192;-81
2023/10/01 08:42:16;;;;;;;10.40;1.60;;;12.70;99.90;;;;;;4969019;28;20192;-80
2023/10/01 08:44:46;;;;;;;11.80;2.03;;;12.80;99.90;;;;;;4969226;28;20194;-80
2023/10/01 08:47:34;;;;;;;6.97;1.67;;;12.80;99.90;;;;;;4969499;28;20195;-80
2023/10/01 08:52:57;;;;;;;11.35;1.40;;;12.90;99.90;;;;;;4969420;28;20196;-83
2023/10/01 08:56:14;;;;;;;6.93;1.60;;;12.90;99.90;;;;;;4958670;28;20554;-81
2023/10/01 09:00:52;;;;;;;9.30;2.03;;;12.90;99.90;;;;;;4968945;28;20247;-80
2023/10/01 09:03:34;;;;;;;9.77;1.67;;;12.90;99.90;;;;;;4969759;28;20192;-80
2023/10/01 09:06:24;;;;;;;10.13;2.10;;;13.00;99.90;;;;;;4969130;28;20250;-80
2023/10/01 09:08:55;;;;;;;5.07;1.55;;;13.10;99.90;;;;;;4949059;28;20196;-80
2023/10/01 09:11:49;;;;;;;6.70;1.40;;;13.10;99.90;;;;;;4961465;28;20610;-81
2023/10/01 09:14:17;;;;;;;8.40;1.30;;;13.10;99.90;;;;;;4969360;28;20608;-80
2023/10/01 09:16:46;;;;;;;7.93;1.45;;;13.00;99.90;;;;;;4969060;28;20188;-80
2023/10/01 09:19:31;;;;;;;8.15;1.50;;;13.00;99.90;;;;;;4967468;28;20207;-81
2023/10/01 09:22:10;;;;;;;10.23;1.63;;;12.90;99.90;;;;;;4969054;28;20194;-80
2023/10/01 09:24:42;;;;;;;4.97;1.52;;;12.90;99.90;;;;;;4964280;28;20314;-85
2023/10/01 09:27:19;;;;;;;11.02;1.35;;;12.90;99.90;;;;;;4970073;28;20298;-86
2023/10/01 09:29:57;;;;;;;11.82;2.17;;;13.10;99.90;;;;;;4969886;28;20291;-86
2023/10/01 09:32:51;;;;;;;10.15;1.63;;;13.20;99.90;;;;;;4970064;28;20196;-86
2023/10/01 09:35:38;;;;;;;8.70;1.38;;;13.20;99.90;;;;;;4970152;28;20701;-85
2023/10/01 09:38:18;;;;;;;7.07;1.92;;;13.30;99.90;;;;;;4949375;28;20196;-85
2023/10/01 09:40:47;;;;;;;6.90;1.45;;;13.40;99.90;;;;;;4966736;28;20211;-86
2023/10/01 09:43:19;;;;;;;7.32;1.63;;;13.60;99.90;;;;;;4970032;28;20192;-85
2023/10/01 09:45:49;;;;;;;8.98;1.50;;;13.70;99.90;;;;;;4966485;28;20257;-84
2023/10/01 09:48:29;;;;;;;9.60;1.48;;;13.70;99.90;;;;;;4958897;28;20651;-85
2023/10/01 09:51:08;;;;;;;9.55;1.27;;;13.80;99.90;;;;;;4934899;28;20200;-85
2023/10/01 09:53:47;;;;;;;5.80;1.17;;;13.70;99.90;;;;;;4952133;28;20196;-85
2023/10/01 09:56:26;;;;;;;4.70;1.30;;;13.80;99.90;;;;;;4952134;28;20187;-86
2023/10/01 09:59:08;;;;;;;8.02;1.20;;;13.80;99.90;;;;;;4945054;29;20208;-85
2023/10/01 10:01:37;;;;;;;6.10;1.27;;;13.80;99.90;;;;;;4961709;28;20192;-86
2023/10/01 10:04:10;;;;;;;7.28;1.52;;;13.90;99.90;;;;;;4955726;28;20278;-87
2023/10/01 10:06:39;;;;;;;10.18;1.63;;;13.90;99.90;;;;;;4953578;29;20287;-87
2023/10/01 10:09:29;;;;;;;6.82;1.33;;;13.80;99.90;;;;;;4939332;28;20207;-85
2023/10/01 10:12:01;;;;;;;6.63;1.33;;;13.80;99.90;;;;;;4955961;28;20691;-86
2023/10/01 10:14:33;;;;;;;9.13;1.58;;;13.60;99.90;;;;;;4973619;28;20215;-87
2023/10/01 10:17:18;;;;;;;6.78;1.13;;;13.60;99.90;;;;;;4972108;28;20264;-87
2023/10/01 10:20:24;;;;;;;7.35;1.60;;;13.70;99.90;;;;;;4964552;28;20200;-86
2023/10/01 10:23:14;;;;;;;7.28;1.38;;;13.60;99.90;;;;;;4943544;28;20199;-87
2023/10/01 10:25:46;;;;;;;6.03;1.35;;;13.80;99.90;;;;;;4936489;29;20927;-85
2023/10/01 10:28:25;;;;;;;10.82;1.73;;;13.80;99.90;;;;;;4955311;28;20270;-85
2023/10/01 10:31:33;;;;;;;9.35;1.70;;;14.00;99.90;;;;;;4953093;28;20232;-85
2023/10/01 10:34:26;;;;;;;11.32;2.08;;;14.20;99.90;;;;;;4962653;28;20276;-82
2023/10/01 10:36:54;;;;;;;4.95;1.60;;;14.10;99.90;;;;;;4967931;28;20934;-82
2023/10/01 10:40:02;;;;;;;10.52;2.13;;;14.10;99.90;;;;;;4971440;28;20286;-81
2023/10/01 10:42:33;;;;;;;10.20;1.50;;;13.90;99.90;;;;;;4933045;28;20207;-81
2023/10/01 10:45:22;;;;;;;4.50;1.42;;;14.00;99.90;;;;;;4951914;28;20195;-81
2023/10/01 10:48:03;;;;;;;8.13;1.60;;;14.20;99.90;;;;;;4968767;28;20266;-81
2023/10/01 10:50:54;;;;;;;9.68;1.52;;;14.20;99.90;;;;;;4967125;28;20187;-81
2023/10/01 10:53:37;;;;;;;8.93;1.50;;;14.40;99.90;;;;;;4967448;28;20192;-81
2023/10/01 10:56:10;;;;;;;6.05;1.67;;;14.50;99.90;;;;;;4951792;28;20197;-82
2023/10/01 10:58:45;;;;;;;9.30;1.80;;;14.40;99.90;;;;;;4953722;28;20270;-81
2023/10/01 11:01:18;;;;;;;6.68;1.42;;;14.40;99.90;;;;;;4970075;28;20188;-82
2023/10/01 11:03:57;;;;;;;6.80;1.70;;;14.40;99.90;;;;;;4971412;28;20188;-82
2023/10/01 11:06:39;;;;;;;10.85;1.83;;;14.40;99.90;;;;;;4953207;28;20203;-81
2023/10/01 11:09:22;;;;;;;6.28;1.50;;;14.40;99.90;;;;;;4969340;28;20695;-80
2023/10/01 11:12:22;;;;;;;10.75;1.90;;;14.30;99.90;;;;;;4965572;28;20191;-81
2023/10/01 11:17:48;;;;;;;12.23;1.60;;;14.60;99.90;;;;;;4971146;28;20262;-81
2023/10/01 11:20:22;;;;;;;6.63;1.85;;;14.80;99.90;;;;;;4970672;28;20733;-81
2023/10/01 11:22:54;;;;;;;7.90;1.70;;;14.90;99.90;;;;;;4970111;28;20202;-81
2023/10/01 11:25:23;;;;;;;10.93;1.50;;;14.70;99.90;;;;;;4967594;28;20182;-81
2023/10/01 11:28:08;;;;;;;9.23;1.88;;;14.70;99.90;;;;;;4967924;28;20192;-82
2023/10/01 11:30:43;;;;;;;8.38;1.75;;;14.80;99.90;;;;;;4965957;28;20738;-82
2023/10/01 11:33:13;;;;;;;5.10;1.30;;;15.00;99.90;;;;;;4949551;28;20203;-81
2023/10/01 11:38:50;;;;;;;8.57;1.40;;;14.70;99.90;;;;;;4954401;28;20214;-81
2023/10/01 11:41:38;;;;;;;5.07;1.17;;;14.50;99.90;;;;;;4953546;28;20212;-82
2023/10/01 11:44:07;;;;;;;6.78;1.20;;;14.40;99.90;;;;;;4970959;28;20187;-82
2023/10/01 11:46:39;;;;;;;7.95;1.58;;;14.30;99.90;;;;;;4963571;28;20216;-81
2023/10/01 11:49:08;;;;;;;10.00;1.35;;;14.10;99.90;;;;;;4967672;28;20191;-80
2023/10/01 11:52:01;;;;;;;5.78;1.52;;;14.00;99.90;;;;;;4949995;28;20213;-81
2023/10/01 11:54:43;;;;;;;8.43;1.83;;;14.00;99.90;;;;;;4963234;28;20918;-81
2023/10/01 11:57:31;;;;;;;5.25;1.50;;;13.90;99.90;;;;;;4952841;28;20254;-82
2023/10/01 12:00:01;;;;;;;5.32;1.25;;;13.90;99.90;;;;;;4952599;28;20222;-82
2023/10/01 12:02:43;;;;;;;5.55;1.20;;;13.80;99.90;;;;;;4970403;28;20273;-81
2023/10/01 12:05:16;;;;;;;5.38;1.42;;;13.80;99.90;;;;;;4963536;28;20246;-81
2023/10/01 12:07:43;;;;;;;9.38;1.52;;;13.90;99.90;;;;;;4970474;28;20199;-82
2023/10/01 12:10:31;;;;;;;7.47;1.15;;;14.30;99.90;;;;;;4970310;28;20204;-82
2023/10/01 12:13:00;;;;;;;7.50;1.65;;;14.60;99.90;;;;;;4966889;28;20780;-83
2023/10/01 12:15:34;;;;;;;7.10;1.27;;;14.60;99.90;;;;;;4952749;28;20273;-82
2023/10/01 12:18:08;;;;;;;4.47;1.58;;;14.90;99.90;;;;;;4953088;28;20195;-81
2023/10/01 12:20:50;;;;;;;5.85;1.65;;;15.10;99.90;;;;;;4950114;29;20212;-82
2023/10/01 12:23:22;;;;;;;11.00;1.50;;;15.00;99.90;;;;;;4953398;28;20192;-82
2023/10/01 12:26:31;;;;;;;8.52;1.58;;;15.10;99.90;;;;;;4962451;28;20271;-82
2023/10/01 12:29:11;;;;;;;5.32;1.42;;;15.20;99.90;;;;;;4952573;28;20203;-81
2023/10/01 12:31:28;;;;;;;5.10;1.20;;;15.10;99.90;;;;;;4969652;28;20235;-82
2023/10/01 12:33:58;;;;;;;4.70;1.20;;;14.80;99.90;;;;;;4961382;28;20198;-81
2023/10/01 12:36:33;;;;;;;4.35;1.42;;;14.80;99.90;;;;;;4969606;28;20514;-81
2023/10/01 12:44:34;;;;;;;5.35;1.23;;;14.20;99.90;;;;;;4969293;28;20179;-81
2023/10/01 12:47:15;;;;;;;11.65;1.50;;;14.10;99.90;;;;;;4962671;28;20632;-82
2023/10/01 12:49:42;;;;;;;5.65;1.05;;;14.10;99.90;;;;;;4966636;28;20198;-82
2023/10/01 12:52:14;;;;;;;6.22;1.40;;;14.10;99.90;;;;;;4969520;28;20195;-81
2023/10/01 12:54:42;;;;;;;11.40;1.30;;;14.20;99.90;;;;;;4969445;28;20211;-82
2023/10/01 12:57:12;;;;;;;5.32;1.40;;;14.40;99.90;;;;;;4967697;28;20192;-82
2023/10/01 12:59:42;;;;;;;6.30;1.40;;;14.70;99.90;;;;;;4970072;28;20208;-81
2023/10/01 13:07:48;;;;;;;7.45;1.48;;;14.80;99.90;;;;;;4961253;28;20199;-81
2023/10/01 13:10:18;;;;;;;4.72;1.17;;;14.80;99.90;;;;;;4967614;28;20663;-82
2023/10/01 13:13:00;;;;;;;5.07;1.10;;;14.80;99.90;;;;;;4952133;28;20200;-82
2023/10/01 13:15:31;;;;;;;8.13;1.35;;;14.90;99.90;;;;;;4969405;28;20547;-82
2023/10/01 13:18:11;;;;;;;4.70;1.00;;;14.90;99.90;;;;;;4969259;28;20779;-82
2023/10/01 13:23:31;;;;;;;6.50;1.40;;;14.80;99.90;;;;;;4952143;28;20282;-81
2023/10/01 13:26:05;;;;;;;5.70;1.23;;;14.90;99.90;;;;;;4969573;28;20310;-82
2023/10/01 13:28:49;;;;;;;6.70;1.13;;;15.10;99.90;;;;;;4951998;28;20202;-82
2023/10/01 13:34:21;;;;;;;3.67;0.90;;;15.30;99.90;;;;;;4952092;28;20607;-81
2023/10/01 13:39:44;;;;;;;4.70;1.50;;;15.50;99.90;;;;;;4973403;28;20191;-82
2023/10/01 14:09:52;;;;;;;4.90;1.27;;;15.20;99.90;;;;;;4954938;28;20544;-82
2023/10/01 14:15:21;;;;;;;7.32;1.20;;;15.00;99.90;;;;;;4972822;28;20199;-84
2023/10/01 14:18:08;;;;;;;4.03;1.27;;;14.90;99.90;;;;;;4939329;28;20199;-84
2023/10/01 14:20:49;;;;;;;4.00;1.02;;;14.90;99.90;;;;;;4966381;28;20204;-85
2023/10/01 14:23:23;;;;;;;11.05;1.70;;;14.70;99.90;;;;;;4939212;28;20229;-84
2023/10/01 14:25:52;;;;;;;5.85;1.45;;;14.70;99.90;;;;;;4955269;28;20339;-84
2023/10/01 14:28:21;;;;;;;7.53;1.45;;;14.50;99.90;;;;;;4953658;28;20275;-83
2023/10/01 14:30:59;;;;;;;7.00;1.35;;;14.40;99.90;;;;;;4971970;28;20241;-83
2023/10/01 14:33:27;;;;;;;7.72;1.58;;;14.40;99.90;;;;;;4972145;28;20745;-83
2023/10/01 14:35:56;;;;;;;4.25;1.33;;;14.30;99.90;;;;;;4972056;28;20212;-83
2023/10/01 14:38:26;;;;;;;6.20;1.30;;;14.20;99.90;;;;;;4961106;28;20203;-83
2023/10/01 14:40:56;;;;;;;5.63;1.40;;;14.20;99.90;;;;;;4971962;28;20212;-85
2023/10/01 14:43:27;;;;;;;5.05;1.25;;;14.20;99.90;;;;;;4972683;28;20279;-84